Hovedside
METAR-TAF:

METAR-TAF

Lufthavner :

Sundsvall-Härnösand, Sverige

Sundsvall Timrå lufthavn

breddegrad: 62-32N, lengdegrad: 017-27E, høyde over havet: 4 m

Gjeldene værobservasjon

Denne rapporten ble laget for 29 minutter siden, klokken 20:20 UTC
Vind 10 kt fra Vest-nordvest
Temperatur 6°C
Luftfuktighet 56%
Trykk 1015 hPa
Sikt 10 km eller mer
ingen skyer under 1500 m og ingen bygeskyer

METAR: ESNN 262020Z 30010KT CAVOK 06/M02 Q1015 R16/09//95

Tid: 22:49 (20:49 UTC)

Varsel

Denne rapporten ble laget for 19 minutter siden, klokken 20:30 UTC
Varsel gyldig fra 26. klokken 21 UTC til 26. klokken 23 UTC
Vind 15 kt fra Vest-nordvest
Sikt 10 km eller mer
ingen skyer under 1500 m og ingen bygeskyer

TAF: ESNN 262030Z 2621/2623 30015KT CAVOK

Værobservasjoner og værvarsel for over 4000 flyplasser (METAR- og TAF-rapporter).

Tilgjengelige stasjoner er representert av de røde og gule prikkene på kartet.

Hold musepekeren over prikken for å se navnet på stasjonen.

Klikk så for å se værobservasjoner og -varsler.

For å forandre kartet kan du klikke på den grønne knappen med svart kryss for å zoome inn, på den grønne knappen med strek for å zoome ut, eller på de grønne pilene for å se tilstøtende kart.


METAR-TAF: